Time;durP1;ratioP1;P1;durP2;ratioP2;P2;SDS_P1;SDS_P2;PMS_P1;PMS_P2;Temp;Humidity;BMP_temperature;BMP_pressure;BME280_temperature;BME280_humidity;BME280_pressure;Samples;Min_cycle;Max_cycle;Signal;HPM_P1;HPM_P2
2022/05/25 00:00:47;;;;;;;1.10;0.90;;;11.70;99.90;;;;;;4655951;28;9999977;-72
2022/05/25 00:03:13;;;;;;;1.50;1.10;;;11.60;99.90;;;;;;5016507;28;20021;-72
2022/05/25 00:05:39;;;;;;;1.40;1.30;;;11.60;99.90;;;;;;5021677;28;20025;-72
2022/05/25 00:08:05;;;;;;;1.48;1.17;;;11.60;99.90;;;;;;5011244;28;20033;-72
2022/05/25 00:10:31;;;;;;;2.25;1.52;;;11.60;99.90;;;;;;5003992;28;20032;-71
2022/05/25 00:12:57;;;;;;;1.40;1.30;;;11.50;99.90;;;;;;4995824;28;20034;-72
2022/05/25 00:15:22;;;;;;;1.55;1.20;;;11.50;99.90;;;;;;4992268;28;20108;-72
2022/05/25 00:17:48;;;;;;;1.95;1.40;;;11.50;99.90;;;;;;4987969;28;20205;-72
2022/05/25 00:20:14;;;;;;;1.80;1.23;;;11.50;99.90;;;;;;4992313;28;20551;-72
2022/05/25 00:22:44;;;;;;;2.80;1.73;;;11.50;99.90;;;;;;4995170;28;20022;-72
2022/05/25 00:25:23;;;;;;;2.47;1.33;;;11.50;99.90;;;;;;4989291;28;20033;-72
2022/05/25 00:27:50;;;;;;;1.63;1.35;;;11.50;99.90;;;;;;4985875;28;20174;-71
2022/05/25 00:30:16;;;;;;;2.97;1.50;;;11.40;99.90;;;;;;4993354;28;20030;-72
2022/05/25 00:32:42;;;;;;;2.65;1.70;;;11.50;99.90;;;;;;5000654;28;20030;-72
2022/05/25 00:35:10;;;;;;;2.95;1.70;;;11.40;99.90;;;;;;4992611;28;20056;-72
2022/05/25 00:37:36;;;;;;;2.92;1.45;;;11.40;99.90;;;;;;4995539;28;20033;-72
2022/05/25 00:40:03;;;;;;;1.60;1.50;;;11.40;99.90;;;;;;4997666;28;20026;-72
2022/05/25 00:42:28;;;;;;;2.90;1.20;;;11.30;99.90;;;;;;4993493;28;20116;-71
2022/05/25 00:44:54;;;;;;;3.25;1.58;;;11.30;99.90;;;;;;5001210;28;20605;-72
2022/05/25 00:47:25;;;;;;;2.10;1.52;;;11.30;99.90;;;;;;5003429;28;20037;-72
2022/05/25 00:49:51;;;;;;;2.17;1.50;;;11.30;99.90;;;;;;4994384;28;20510;-72
2022/05/25 00:52:17;;;;;;;2.00;1.30;;;11.30;99.90;;;;;;4990247;28;20034;-72
2022/05/25 00:54:48;;;;;;;1.50;1.33;;;11.20;99.90;;;;;;4997620;28;20029;-72
2022/05/25 00:57:21;;;;;;;2.58;1.70;;;11.20;99.90;;;;;;5002414;28;20046;-72
2022/05/25 01:00:05;;;;;;;2.35;1.60;;;11.20;99.90;;;;;;4989445;28;20038;-71
2022/05/25 01:02:33;;;;;;;4.78;1.90;;;11.20;99.90;;;;;;4988498;28;20049;-71
2022/05/25 01:04:59;;;;;;;2.28;1.52;;;11.20;99.90;;;;;;4995898;28;20018;-72
2022/05/25 01:07:46;;;;;;;3.58;1.80;;;11.30;99.90;;;;;;4989129;28;20049;-72
2022/05/25 01:10:38;;;;;;;3.50;1.98;;;11.40;99.90;;;;;;4986593;28;20117;-71
2022/05/25 01:13:43;;;;;;;4.18;2.03;;;11.40;99.90;;;;;;4986355;28;20263;-72
2022/05/25 01:16:26;;;;;;;;;;;11.40;99.90;;;;;;4953208;28;20042;-72
2022/05/25 01:19:13;;;;;;;2.00;1.80;;;11.40;99.90;;;;;;4981069;28;19917;-71
2022/05/25 01:21:59;;;;;;;2.85;1.90;;;11.50;99.90;;;;;;4984680;28;20066;-72
2022/05/25 01:24:30;;;;;;;2.53;1.67;;;11.40;99.90;;;;;;4987331;28;20517;-71
2022/05/25 01:27:04;;;;;;;2.13;1.88;;;11.50;99.90;;;;;;4981603;28;20268;-71
2022/05/25 01:30:03;;;;;;;1.83;1.73;;;11.50;99.90;;;;;;4990045;28;20064;-72
2022/05/25 01:32:31;;;;;;;2.35;1.50;;;11.50;99.90;;;;;;4986628;28;20022;-71
2022/05/25 01:35:07;;;;;;;3.28;1.77;;;11.40;99.90;;;;;;4985813;28;20029;-72
2022/05/25 01:38:13;;;;;;;2.25;1.48;;;11.50;99.90;;;;;;4984374;28;20423;-71
2022/05/25 01:41:24;;;;;;;6.40;1.80;;;11.40;99.90;;;;;;4992378;28;20093;-71
2022/05/25 01:43:58;;;;;;;2.00;1.80;;;11.40;99.90;;;;;;4988859;28;20081;-71
2022/05/25 01:46:31;;;;;;;1.60;1.50;;;11.50;99.90;;;;;;4986372;28;20522;-71
2022/05/25 01:48:58;;;;;;;1.90;1.80;;;11.40;99.90;;;;;;4987855;28;20030;-71
2022/05/25 01:51:33;;;;;;;2.38;1.75;;;11.40;99.90;;;;;;4989225;28;20285;-72
2022/05/25 01:54:01;;;;;;;3.50;1.50;;;11.40;99.90;;;;;;4989090;28;20597;-71
2022/05/25 01:56:30;;;;;;;3.08;1.92;;;11.50;99.90;;;;;;4988710;28;20041;-72
2022/05/25 01:59:03;;;;;;;1.90;1.70;;;11.50;99.90;;;;;;4987269;28;20152;-71
2022/05/25 02:01:29;;;;;;;2.65;1.67;;;11.50;99.90;;;;;;4992517;28;20030;-71
2022/05/25 02:07:02;;;;;;;2.17;1.67;;;11.40;99.90;;;;;;4987415;28;20993;-72
2022/05/25 02:09:47;;;;;;;2.35;1.75;;;11.40;99.90;;;;;;4994988;28;20084;-71
2022/05/25 02:12:33;;;;;;;3.85;1.60;;;11.40;99.90;;;;;;5009579;28;20398;-71
2022/05/25 02:15:11;;;;;;;1.67;1.48;;;11.40;99.90;;;;;;5011966;28;20028;-72
2022/05/25 02:17:58;;;;;;;1.73;1.63;;;11.30;99.90;;;;;;5007993;28;20030;-71
2022/05/25 02:20:28;;;;;;;2.40;1.83;;;11.30;99.90;;;;;;5004698;28;20040;-72
2022/05/25 02:23:03;;;;;;;1.90;1.42;;;11.30;99.90;;;;;;5007480;28;20022;-71
2022/05/25 02:25:47;;;;;;;1.70;1.60;;;11.30;99.90;;;;;;5008514;28;20064;-71
2022/05/25 02:28:15;;;;;;;1.88;1.65;;;11.30;99.90;;;;;;5007017;28;20477;-71
2022/05/25 02:30:49;;;;;;;3.60;1.52;;;11.40;99.90;;;;;;5011555;28;20030;-72
2022/05/25 02:33:24;;;;;;;1.95;1.70;;;11.40;99.90;;;;;;5015685;28;20132;-72
2022/05/25 02:35:51;;;;;;;2.97;1.77;;;11.40;99.90;;;;;;5025716;28;20025;-71
2022/05/25 02:38:18;;;;;;;2.40;1.77;;;11.40;99.90;;;;;;5007112;28;20065;-72
2022/05/25 02:40:43;;;;;;;2.75;1.83;;;11.40;99.90;;;;;;5014060;28;20413;-71
2022/05/25 02:43:10;;;;;;;2.97;1.80;;;11.30;99.90;;;;;;5010986;28;20022;-71
2022/05/25 02:45:37;;;;;;;5.05;2.10;;;11.30;99.90;;;;;;5018797;28;20132;-72
2022/05/25 02:48:03;;;;;;;2.08;1.73;;;11.30;99.90;;;;;;5008921;28;20504;-72
2022/05/25 02:50:29;;;;;;;2.38;1.83;;;11.20;99.90;;;;;;5007009;28;20041;-73
2022/05/25 02:52:56;;;;;;;3.97;1.88;;;11.20;99.90;;;;;;5005956;28;20025;-72
2022/05/25 02:55:22;;;;;;;2.45;1.70;;;11.20;99.90;;;;;;5011149;28;20076;-72
2022/05/25 02:57:48;;;;;;;2.30;1.98;;;11.10;99.90;;;;;;5009027;28;20462;-72
2022/05/25 03:00:14;;;;;;;2.70;1.95;;;11.10;99.90;;;;;;5004332;28;20429;-72
2022/05/25 03:02:40;;;;;;;2.25;1.92;;;11.00;99.90;;;;;;5010390;28;20220;-72
2022/05/25 03:05:07;;;;;;;2.10;1.90;;;11.00;99.90;;;;;;5024736;28;20076;-72
2022/05/25 03:07:34;;;;;;;2.67;1.80;;;11.00;99.90;;;;;;5015661;28;20446;-73
2022/05/25 03:10:00;;;;;;;2.78;1.90;;;10.90;99.90;;;;;;5000147;28;20101;-72
2022/05/25 03:12:26;;;;;;;2.75;1.95;;;10.90;99.90;;;;;;5007208;28;20042;-72
2022/05/25 03:14:51;;;;;;;3.70;1.88;;;10.80;99.90;;;;;;5004823;28;20034;-73
2022/05/25 03:17:17;;;;;;;1.88;1.67;;;10.80;99.90;;;;;;5008891;28;20113;-73
2022/05/25 03:19:53;;;;;;;2.80;1.90;;;10.80;99.90;;;;;;5000093;28;20213;-72
2022/05/25 03:22:19;;;;;;;3.53;1.77;;;10.70;99.90;;;;;;5005172;28;20104;-72
2022/05/25 03:24:45;;;;;;;2.55;1.75;;;10.70;99.90;;;;;;5010402;28;20101;-72
2022/05/25 03:27:11;;;;;;;2.38;1.70;;;10.70;99.90;;;;;;5009174;28;20049;-72
2022/05/25 03:29:37;;;;;;;2.08;1.88;;;10.60;99.90;;;;;;5003894;28;20068;-72
2022/05/25 03:32:03;;;;;;;2.08;1.98;;;10.60;99.90;;;;;;5007691;28;20018;-72
2022/05/25 03:34:28;;;;;;;1.95;1.77;;;10.60;99.90;;;;;;5006215;28;20029;-73
2022/05/25 03:36:57;;;;;;;3.45;2.00;;;10.60;99.90;;;;;;5012844;28;20037;-73
2022/05/25 03:39:24;;;;;;;4.45;1.90;;;10.60;99.90;;;;;;4314563;28;10000716;-73
2022/05/25 03:42:07;;;;;;;2.97;2.33;;;10.60;99.90;;;;;;5000601;28;20438;-72
2022/05/25 03:44:34;;;;;;;1.92;1.83;;;10.60;99.90;;;;;;5001866;28;20036;-73
2022/05/25 03:47:00;;;;;;;4.55;2.10;;;10.60;99.90;;;;;;5001875;28;20037;-72
2022/05/25 03:49:26;;;;;;;2.15;1.95;;;10.50;99.90;;;;;;5008352;28;20083;-72
2022/05/25 03:51:51;;;;;;;4.22;1.90;;;10.50;99.90;;;;;;5006806;28;20030;-73
2022/05/25 03:54:18;;;;;;;2.95;2.20;;;10.50;99.90;;;;;;4996691;28;20044;-73
2022/05/25 03:56:43;;;;;;;1.98;1.88;;;10.50;99.90;;;;;;4997528;28;20037;-72
2022/05/25 03:59:09;;;;;;;2.30;2.10;;;10.50;99.90;;;;;;5000042;28;20025;-72
2022/05/25 04:01:36;;;;;;;3.35;2.33;;;10.50;99.90;;;;;;5004361;28;20029;-72
2022/05/25 04:04:02;;;;;;;3.78;2.28;;;10.50;99.90;;;;;;4990537;28;20018;-72
2022/05/25 04:06:27;;;;;;;3.60;2.10;;;10.50;99.90;;;;;;4998894;28;20156;-72
2022/05/25 04:08:53;;;;;;;2.53;2.03;;;10.60;99.90;;;;;;5000516;28;20030;-72
2022/05/25 04:11:19;;;;;;;3.85;2.50;;;10.70;99.90;;;;;;4996441;28;20442;-73
2022/05/25 04:13:45;;;;;;;2.47;2.20;;;10.80;99.90;;;;;;5007374;28;20037;-73
2022/05/25 04:16:11;;;;;;;3.05;2.42;;;11.00;99.90;;;;;;4995729;28;20033;-72
2022/05/25 04:18:37;;;;;;;4.45;2.58;;;11.90;99.90;;;;;;5001149;28;20045;-72
2022/05/25 04:21:02;;;;;;;5.43;2.28;;;13.50;99.90;;;;;;5002413;28;20108;-72
2022/05/25 04:23:29;;;;;;;2.17;1.85;;;14.90;99.90;;;;;;4999898;28;20169;-72
2022/05/25 04:25:56;;;;;;;6.53;2.10;;;16.20;99.90;;;;;;5009209;28;20707;-72
2022/05/25 04:28:22;;;;;;;4.10;2.20;;;17.00;99.90;;;;;;5010153;28;20035;-73
2022/05/25 04:30:48;;;;;;;3.45;2.00;;;17.30;99.90;;;;;;4995332;28;20029;-73
2022/05/25 04:33:14;;;;;;;3.50;2.00;;;16.80;99.90;;;;;;5016504;28;20095;-73
2022/05/25 04:35:41;;;;;;;1.80;1.70;;;16.20;99.90;;;;;;5014186;28;20033;-73
2022/05/25 04:38:07;;;;;;;1.98;1.83;;;15.70;99.90;;;;;;5010858;28;20113;-73
2022/05/25 04:40:40;;;;;;;3.63;2.05;;;15.10;99.90;;;;;;4999270;28;20111;-73
2022/05/25 04:43:13;;;;;;;2.15;1.88;;;14.50;99.90;;;;;;5001328;28;20026;-73
2022/05/25 04:45:41;;;;;;;2.72;2.00;;;14.10;99.90;;;;;;4998547;28;20066;-72
2022/05/25 04:48:07;;;;;;;6.05;2.08;;;13.80;99.90;;;;;;4997475;28;20594;-72
2022/05/25 04:50:36;;;;;;;4.18;2.35;;;13.40;99.90;;;;;;5006314;28;20068;-73
2022/05/25 04:53:03;;;;;;;2.83;2.05;;;13.40;99.90;;;;;;5003670;28;20065;-73
2022/05/25 04:58:27;;;;;;;4.03;2.15;;;13.20;99.90;;;;;;4993959;28;20040;-73
2022/05/25 05:00:54;;;;;;;3.05;1.90;;;13.20;99.90;;;;;;5000534;28;20087;-74
2022/05/25 05:03:21;;;;;;;2.47;2.08;;;13.20;99.90;;;;;;5007235;28;20030;-73
2022/05/25 05:05:47;;;;;;;6.63;2.20;;;13.20;99.90;;;;;;5006895;28;20022;-73
2022/05/25 05:08:13;;;;;;;3.92;2.00;;;13.20;99.90;;;;;;5009766;28;20079;-73
2022/05/25 05:10:39;;;;;;;3.53;2.20;;;13.20;99.90;;;;;;5000397;28;20478;-73
2022/05/25 05:13:07;;;;;;;3.70;2.13;;;13.30;99.90;;;;;;4986894;28;20061;-73
2022/05/25 05:15:33;;;;;;;2.65;1.90;;;13.30;99.90;;;;;;4985067;28;20095;-73
2022/05/25 05:18:01;;;;;;;3.13;1.95;;;13.40;99.90;;;;;;4997443;28;20128;-73
2022/05/25 05:20:27;;;;;;;3.58;2.03;;;13.50;99.90;;;;;;5004660;28;20026;-73
2022/05/25 05:22:53;;;;;;;4.38;1.88;;;13.60;99.90;;;;;;4991284;28;20030;-73
2022/05/25 05:25:19;;;;;;;2.97;1.88;;;13.70;99.90;;;;;;5007375;28;20057;-73
2022/05/25 05:27:45;;;;;;;3.88;1.92;;;13.80;99.90;;;;;;5002451;28;20040;-73
2022/05/25 05:30:14;;;;;;;3.63;1.88;;;13.90;99.90;;;;;;4995263;28;20033;-73
2022/05/25 05:32:39;;;;;;;3.20;2.05;;;13.90;99.90;;;;;;4987889;28;20062;-73
2022/05/25 05:35:05;;;;;;;4.75;1.95;;;13.90;99.90;;;;;;5008711;28;20508;-73
2022/05/25 05:37:36;;;;;;;2.35;1.50;;;14.00;99.90;;;;;;4986223;28;20042;-73
2022/05/25 05:40:04;;;;;;;3.88;1.85;;;14.00;99.90;;;;;;5000412;28;20105;-74
2022/05/25 05:42:29;;;;;;;3.20;1.83;;;14.00;99.90;;;;;;4997075;28;20030;-73
2022/05/25 05:45:06;;;;;;;6.18;2.05;;;14.10;99.90;;;;;;4992682;28;20364;-73
2022/05/25 05:47:50;;;;;;;2.30;1.80;;;14.20;99.90;;;;;;4993350;28;20059;-73
2022/05/25 05:50:17;;;;;;;3.92;2.00;;;14.30;99.90;;;;;;4985796;28;20034;-74
2022/05/25 05:52:43;;;;;;;3.28;1.80;;;14.30;99.90;;;;;;4986573;28;20116;-73
2022/05/25 05:55:09;;;;;;;6.47;2.17;;;14.30;99.90;;;;;;4998340;28;20109;-73
2022/05/25 05:57:38;;;;;;;2.58;2.00;;;14.30;99.90;;;;;;4999828;28;20034;-74
2022/05/25 06:00:06;;;;;;;2.17;1.80;;;14.20;99.90;;;;;;4994951;28;20034;-73
2022/05/25 06:02:32;;;;;;;3.75;2.03;;;14.20;99.90;;;;;;4991359;28;20376;-73
2022/05/25 06:04:58;;;;;;;4.45;2.25;;;14.10;99.90;;;;;;4985483;28;20042;-74
2022/05/25 06:07:24;;;;;;;3.20;2.10;;;14.10;99.90;;;;;;4994599;28;20025;-73
2022/05/25 06:09:49;;;;;;;3.60;1.83;;;14.10;99.90;;;;;;4991668;28;20057;-72
2022/05/25 06:12:15;;;;;;;3.88;1.90;;;14.10;99.90;;;;;;5006028;28;20228;-74
2022/05/25 06:14:41;;;;;;;2.00;1.80;;;14.20;99.90;;;;;;5012561;28;20465;-74
2022/05/25 06:19:51;;;;;;;3.20;2.00;;;14.20;99.90;;;;;;5003669;28;20056;-74
2022/05/25 06:22:20;;;;;;;2.25;1.42;;;14.20;99.90;;;;;;5001908;28;20034;-73
2022/05/25 06:24:49;;;;;;;3.92;2.13;;;14.20;99.90;;;;;;5024766;28;20033;-73
2022/05/25 06:27:15;;;;;;;4.28;1.70;;;14.30;99.90;;;;;;5013504;28;20034;-73
2022/05/25 06:29:47;;;;;;;2.38;1.63;;;14.30;99.90;;;;;;5002190;28;20401;-73
2022/05/25 06:32:15;;;;;;;6.28;2.38;;;14.50;99.90;;;;;;5005330;28;20068;-73
2022/05/25 06:34:42;;;;;;;2.08;1.63;;;14.70;99.90;;;;;;5006051;28;20472;-73
2022/05/25 06:37:13;;;;;;;6.18;1.73;;;14.70;99.90;;;;;;5012932;28;20169;-74
2022/05/25 06:39:39;;;;;;;4.32;1.77;;;14.90;99.90;;;;;;5004009;28;20037;-74
2022/05/25 06:42:06;;;;;;;5.05;2.10;;;15.10;99.90;;;;;;5018521;28;20033;-75
2022/05/25 06:44:32;;;;;;;2.75;1.48;;;15.40;99.90;;;;;;5015375;28;20033;-74
2022/05/25 06:46:58;;;;;;;3.70;1.58;;;15.50;99.90;;;;;;5009319;28;20060;-74
2022/05/25 06:49:24;;;;;;;2.35;1.55;;;15.80;99.90;;;;;;5010739;28;20045;-74
2022/05/25 06:51:50;;;;;;;5.03;1.38;;;16.00;99.90;;;;;;5020090;28;20567;-73
2022/05/25 06:54:17;;;;;;;2.00;1.20;;;16.40;99.90;;;;;;5020340;28;20106;-74
2022/05/25 06:56:43;;;;;;;4.53;1.27;;;16.60;99.90;;;;;;4999519;28;20103;-74
2022/05/25 06:59:09;;;;;;;2.95;1.10;;;16.80;99.90;;;;;;5010921;28;20030;-74
2022/05/25 07:01:36;;;;;;;4.28;1.20;;;16.90;99.90;;;;;;5026113;28;20029;-74
2022/05/25 07:04:02;;;;;;;7.07;1.40;;;17.00;99.90;;;;;;5021899;28;20684;-74
2022/05/25 07:06:28;;;;;;;3.75;1.30;;;17.20;99.90;;;;;;5009447;28;20026;-74
2022/05/25 07:08:54;;;;;;;2.13;1.25;;;17.40;99.90;;;;;;5017381;28;20104;-75
2022/05/25 07:11:21;;;;;;;2.60;1.42;;;17.60;99.90;;;;;;5014726;28;20041;-75
2022/05/25 07:13:47;;;;;;;2.63;1.40;;;17.70;99.90;;;;;;4999750;28;20037;-75
2022/05/25 07:16:15;;;;;;;2.28;1.33;;;17.70;99.90;;;;;;5028422;28;20025;-74
2022/05/25 07:18:42;;;;;;;3.95;1.45;;;17.90;99.90;;;;;;5013975;28;20030;-75
2022/05/25 07:21:12;;;;;;;4.07;1.63;;;18.00;99.90;;;;;;5025328;28;20048;-74
2022/05/25 07:23:40;;;;;;;2.55;1.50;;;18.00;99.90;;;;;;5008150;28;20257;-74
2022/05/25 07:26:07;;;;;;;3.45;1.77;;;18.10;99.90;;;;;;5017993;28;20440;-75
2022/05/25 07:28:34;;;;;;;5.38;1.90;;;18.20;99.90;;;;;;5017158;28;20037;-74
2022/05/25 07:31:07;;;;;;;3.42;1.60;;;18.30;99.90;;;;;;5009390;28;20037;-75
2022/05/25 07:33:34;;;;;;;6.55;1.60;;;18.40;99.90;;;;;;5008348;28;20025;-75
2022/05/25 07:36:00;;;;;;;3.75;1.40;;;18.50;99.90;;;;;;5018668;28;20712;-75
2022/05/25 07:38:28;;;;;;;3.13;1.65;;;18.70;99.90;;;;;;5014243;28;20073;-74
2022/05/25 07:40:56;;;;;;;2.58;1.42;;;18.80;99.90;;;;;;5008221;28;20616;-75
2022/05/25 07:43:26;;;;;;;4.78;1.33;;;19.00;99.90;;;;;;5013098;28;20056;-75
2022/05/25 07:45:52;;;;;;;2.85;1.30;;;;;;;;;;5020325;28;20620;-74
2022/05/25 07:48:18;;;;;;;4.28;2.13;;;19.20;99.90;;;;;;4996470;28;20034;-74
2022/05/25 07:50:44;;;;;;;3.88;1.73;;;19.30;99.90;;;;;;5008366;28;20079;-75
2022/05/25 07:55:57;;;;;;;5.95;2.03;;;19.50;99.90;;;;;;5012929;28;20083;-75
2022/05/25 07:58:23;;;;;;;5.78;1.98;;;19.50;99.90;;;;;;5006122;28;20472;-75
2022/05/25 08:00:53;;;;;;;4.70;1.60;;;19.60;99.90;;;;;;5009184;28;20175;-74
2022/05/25 08:06:04;;;;;;;2.60;1.80;;;20.00;99.90;;;;;;5003863;28;20079;-75
2022/05/25 08:08:30;;;;;;;2.75;1.75;;;20.10;99.90;;;;;;5005751;28;20036;-75
2022/05/25 08:11:04;;;;;;;3.33;2.05;;;20.20;99.90;;;;;;5007351;28;20144;-75
2022/05/25 08:13:32;;;;;;;4.05;1.48;;;20.30;99.90;;;;;;4994265;28;20109;-75
2022/05/25 08:15:58;;;;;;;3.67;1.85;;;20.40;99.90;;;;;;4987183;28;20031;-75
2022/05/25 08:18:23;;;;;;;2.08;1.50;;;20.40;99.90;;;;;;4999220;28;20232;-75
2022/05/25 08:20:49;;;;;;;5.57;1.90;;;20.40;99.90;;;;;;4985985;28;20019;-75
2022/05/25 08:23:16;;;;;;;4.35;1.80;;;20.30;99.90;;;;;;4987493;28;20501;-75
2022/05/25 08:25:43;;;;;;;6.07;1.67;;;20.70;99.90;;;;;;4988485;28;20054;-75
2022/05/25 08:28:09;;;;;;;4.50;1.80;;;20.80;99.90;;;;;;4968683;28;20053;-75
2022/05/25 08:30:38;;;;;;;4.00;1.85;;;20.90;99.90;;;;;;4976448;28;20091;-75
2022/05/25 08:33:04;;;;;;;2.97;1.60;;;20.90;99.90;;;;;;4987814;28;20084;-74
2022/05/25 08:35:30;;;;;;;2.95;1.60;;;20.80;99.90;;;;;;4984778;28;20390;-75
2022/05/25 08:37:57;;;;;;;3.45;1.73;;;20.50;99.90;;;;;;4981504;28;20077;-75
2022/05/25 08:40:24;;;;;;;4.20;1.80;;;20.40;99.90;;;;;;4982397;28;20072;-75
2022/05/25 08:43:15;;;;;;;5.57;1.85;;;20.10;99.90;;;;;;4994092;28;20026;-75
2022/05/25 08:45:44;;;;;;;3.88;1.80;;;19.80;99.90;;;;;;5007351;28;20105;-75
2022/05/25 08:48:13;;;;;;;6.57;1.70;;;19.40;99.90;;;;;;4999711;28;20378;-75
2022/05/25 08:50:40;;;;;;;5.20;1.95;;;19.20;99.90;;;;;;4987005;28;20034;-75
2022/05/25 08:53:10;;;;;;;6.28;2.03;;;18.90;99.90;;;;;;4987384;28;20030;-75
2022/05/25 08:56:17;;;;;;;5.18;1.92;;;19.00;99.90;;;;;;4970290;28;20062;-75
2022/05/25 08:58:55;;;;;;;3.92;1.58;;;19.50;99.90;;;;;;4966408;28;20031;-75
2022/05/25 09:01:29;;;;;;;3.30;1.38;;;20.00;99.90;;;;;;4968331;28;20130;-74
2022/05/25 09:04:11;;;;;;;4.05;1.63;;;20.30;99.90;;;;;;4984478;28;20053;-74
2022/05/25 09:06:57;;;;;;;2.97;0.95;;;20.40;99.90;;;;;;5003305;28;20026;-74
2022/05/25 09:09:23;;;;;;;2.78;1.08;;;;;;;;;;4965691;28;20034;-75
2022/05/25 09:11:55;;;;;;;3.80;0.88;;;19.80;99.90;;;;;;4976670;28;20418;-75
2022/05/25 09:14:27;;;;;;;3.33;0.80;;;;;;;;;;4992005;28;20049;-75
2022/05/25 09:16:56;;;;;;;1.92;0.80;;;19.60;99.90;;;;;;5000357;28;20054;-75
2022/05/25 09:19:27;;;;;;;3.55;0.75;;;20.00;99.90;;;;;;5003510;28;20037;-74
2022/05/25 09:21:57;;;;;;;5.97;0.90;;;20.30;98.10;;;;;;5010853;28;20072;-75
2022/05/25 09:24:25;;;;;;;1.90;0.93;;;20.70;98.90;;;;;;5014653;28;20036;-75
2022/05/25 09:26:51;;;;;;;2.92;1.05;;;20.90;96.60;;;;;;5011204;28;20022;-75
2022/05/25 09:29:17;;;;;;;1.90;0.60;;;21.10;94.50;;;;;;4998912;28;20486;-75
2022/05/25 09:31:54;;;;;;;2.83;0.75;;;21.20;94.60;;;;;;5000003;28;20037;-76
2022/05/25 09:34:32;;;;;;;1.50;0.88;;;21.40;93.80;;;;;;5025184;28;20056;-76
2022/05/25 09:37:08;;;;;;;2.58;0.68;;;21.50;93.00;;;;;;5001929;28;20513;-75
2022/05/25 09:39:38;;;;;;;2.75;0.70;;;21.40;91.50;;;;;;5001916;28;20116;-76
2022/05/25 09:42:05;;;;;;;2.03;0.70;;;21.00;91.30;;;;;;5001845;28;20025;-76
2022/05/25 09:44:31;;;;;;;1.08;0.70;;;20.80;92.90;;;;;;5023378;28;20018;-76
2022/05/25 09:47:05;;;;;;;1.23;0.60;;;20.90;93.10;;;;;;5006583;28;20362;-75
2022/05/25 09:49:33;;;;;;;1.27;0.60;;;21.20;93.00;;;;;;5001426;28;20104;-75
2022/05/25 09:52:04;;;;;;;5.38;0.60;;;21.30;92.40;;;;;;5002250;28;20125;-75
2022/05/25 09:54:34;;;;;;;2.22;0.50;;;21.30;91.00;;;;;;5010848;28;20164;-75
2022/05/25 09:57:07;;;;;;;3.10;0.70;;;21.40;93.00;;;;;;5008310;28;20037;-73
2022/05/25 09:59:49;;;;;;;;;;;21.50;89.30;;;;;;5000234;28;20037;-73
2022/05/25 10:02:49;;;;;;;3.65;0.65;;;21.50;90.20;;;;;;4999569;28;20373;-74
2022/05/25 10:05:16;;;;;;;3.50;0.63;;;21.60;85.70;;;;;;4962341;28;20504;-74
2022/05/25 10:08:03;;;;;;;3.75;0.65;;;21.60;87.70;;;;;;5016490;28;20072;-74
2022/05/25 10:10:44;;;;;;;1.95;0.60;;;21.50;85.80;;;;;;5005415;28;20038;-73
2022/05/25 10:13:20;;;;;;;7.85;0.60;;;21.60;87.80;;;;;;5008957;28;20053;-74
2022/05/25 10:15:51;;;;;;;1.30;0.60;;;21.70;86.40;;;;;;5009887;28;20036;-73
2022/05/25 10:18:31;;;;;;;1.55;0.50;;;21.70;81.90;;;;;;5006731;28;20113;-73
2022/05/25 10:20:57;;;;;;;1.95;0.50;;;21.60;83.80;;;;;;5002528;28;20029;-73
2022/05/25 10:23:25;;;;;;;6.75;0.85;;;21.80;85.10;;;;;;4996861;28;20076;-73
2022/05/25 10:26:15;;;;;;;1.60;0.63;;;21.80;83.90;;;;;;5012155;28;20266;-72
2022/05/25 10:28:57;;;;;;;1.60;0.65;;;21.60;82.70;;;;;;5003365;28;20030;-73
2022/05/25 10:37:08;;;;;;;2.65;0.70;;;20.60;83.10;;;;;;5003341;28;20187;-73
2022/05/25 10:39:39;;;;;;;1.75;0.70;;;20.30;84.20;;;;;;4999374;28;20033;-74
2022/05/25 10:42:44;;;;;;;1.70;0.73;;;20.00;85.40;;;;;;5009655;28;20389;-74
2022/05/25 10:45:32;;;;;;;3.42;0.60;;;20.00;83.30;;;;;;5012554;28;20026;-73
2022/05/25 10:48:23;;;;;;;1.83;0.63;;;20.00;82.60;;;;;;4999432;28;20056;-74
2022/05/25 10:50:57;;;;;;;0.98;0.55;;;19.90;83.10;;;;;;4981020;28;20037;-74
2022/05/25 10:53:43;;;;;;;3.20;0.60;;;20.00;83.20;;;;;;5008549;28;20417;-74
2022/05/25 10:56:17;;;;;;;1.30;0.50;;;20.50;86.50;;;;;;5010626;28;20040;-74
2022/05/25 10:59:02;;;;;;;1.80;0.60;;;21.00;79.40;;;;;;5000216;28;20057;-74
2022/05/25 11:01:33;;;;;;;1.70;0.50;;;21.30;79.00;;;;;;5014110;28;20120;-74
2022/05/25 11:04:12;;;;;;;1.88;0.60;;;21.50;80.00;;;;;;5004573;28;20026;-74
2022/05/25 11:06:47;;;;;;;3.15;0.45;;;21.40;76.70;;;;;;5004646;28;20037;-74
2022/05/25 11:09:25;;;;;;;2.67;0.50;;;21.40;77.50;;;;;;5004224;28;20077;-74
2022/05/25 11:12:08;;;;;;;1.60;0.40;;;21.30;76.60;;;;;;4980582;28;20076;-73
2022/05/25 11:14:51;;;;;;;2.00;0.38;;;21.10;77.50;;;;;;5008225;28;20041;-73
2022/05/25 11:17:36;;;;;;;1.42;0.40;;;21.20;75.30;;;;;;4996971;28;20049;-73
2022/05/25 11:20:18;;;;;;;1.75;0.50;;;21.10;77.30;;;;;;5006396;28;20540;-73
2022/05/25 11:23:02;;;;;;;2.80;0.60;;;20.90;74.90;;;;;;5012067;28;20030;-75
2022/05/25 11:25:39;;;;;;;0.43;0.40;;;20.60;74.20;;;;;;5015618;28;20033;-75
2022/05/25 11:28:37;;;;;;;2.83;0.50;;;20.40;74.90;;;;;;5010076;28;20038;-72
2022/05/25 11:31:12;;;;;;;2.47;0.50;;;20.10;75.20;;;;;;5003593;28;20532;-74
2022/05/25 11:33:55;;;;;;;2.45;0.60;;;19.90;76.10;;;;;;5011619;28;20115;-73
2022/05/25 11:36:21;;;;;;;;;;;20.00;79.30;;;;;;5013645;28;20031;-73
2022/05/25 11:39:02;;;;;;;1.85;0.60;;;20.20;78.80;;;;;;4998755;28;19914;-73
2022/05/25 11:41:47;;;;;;;0.52;0.38;;;20.20;79.60;;;;;;5005155;28;20123;-73
2022/05/25 11:44:24;;;;;;;1.77;0.30;;;20.10;79.70;;;;;;5017452;28;20018;-73
2022/05/25 11:46:51;;;;;;;0.93;0.45;;;20.40;76.70;;;;;;4998849;28;20034;-73
2022/05/25 11:49:25;;;;;;;5.25;0.82;;;20.70;76.30;;;;;;5002627;28;20058;-72
2022/05/25 11:52:34;;;;;;;3.28;0.50;;;21.20;95.20;;;;;;4997918;28;20437;-72
2022/05/25 11:55:26;;;;;;;2.13;0.43;;;21.50;93.70;;;;;;5001206;28;20390;-73
2022/05/25 11:58:21;;;;;;;0.98;0.30;;;21.90;92.00;;;;;;5017555;28;20022;-73
2022/05/25 12:00:57;;;;;;;2.80;0.40;;;22.40;90.60;;;;;;5005471;28;20778;-72
2022/05/25 12:03:35;;;;;;;2.67;0.30;;;22.60;67.00;;;;;;4643644;28;10000363;-73
2022/05/25 12:06:19;;;;;;;2.50;0.50;;;22.70;66.60;;;;;;4996822;28;20764;-74
2022/05/25 12:09:37;;;;;;;2.25;0.43;;;22.60;63.50;;;;;;5000114;28;20054;-73
2022/05/25 12:12:25;;;;;;;1.05;0.40;;;22.40;69.10;;;;;;4972148;28;20502;-73
2022/05/25 12:15:09;;;;;;;1.65;0.43;;;22.10;68.30;;;;;;5000955;28;20037;-72
2022/05/25 12:17:56;;;;;;;1.40;0.50;;;22.00;67.30;;;;;;5008414;28;20116;-72
2022/05/25 12:20:40;;;;;;;1.05;0.35;;;22.10;68.00;;;;;;4992558;28;20072;-72
2022/05/25 12:23:13;;;;;;;1.85;0.30;;;22.30;67.80;;;;;;5001048;28;20038;-73
2022/05/25 12:25:48;;;;;;;2.33;0.40;;;22.60;67.10;;;;;;5003028;28;20721;-73
2022/05/25 12:28:13;;;;;;;1.48;0.30;;;22.60;63.60;;;;;;5014361;28;20510;-73
2022/05/25 12:30:46;;;;;;;1.63;0.32;;;22.80;64.40;;;;;;4998199;28;20022;-73
2022/05/25 12:33:20;;;;;;;1.73;0.45;;;22.60;62.90;;;;;;5009047;28;20424;-73
2022/05/25 12:35:46;;;;;;;2.40;0.47;;;22.30;63.70;;;;;;5005418;28;20736;-73
2022/05/25 12:38:12;;;;;;;3.08;0.50;;;22.10;64.60;;;;;;5004046;28;20041;-73
2022/05/25 12:40:44;;;;;;;1.75;0.30;;;22.20;66.70;;;;;;5001154;28;20100;-73
2022/05/25 12:43:37;;;;;;;2.58;0.30;;;22.40;63.90;;;;;;4998803;28;20026;-72
2022/05/25 12:49:03;;;;;;;2.38;0.30;;;22.50;61.20;;;;;;4981833;28;20088;-73
2022/05/25 12:51:36;;;;;;;0.30;0.20;;;22.50;60.90;;;;;;4996640;28;20038;-72
2022/05/25 12:54:05;;;;;;;1.13;0.30;;;22.10;60.50;;;;;;4998135;28;20030;-73
2022/05/25 12:56:37;;;;;;;0.88;0.30;;;21.90;61.60;;;;;;4996039;28;20029;-72
2022/05/25 12:59:12;;;;;;;2.13;0.40;;;21.70;64.20;;;;;;5001446;28;20022;-73
2022/05/25 13:01:42;;;;;;;1.30;0.30;;;21.50;63.60;;;;;;4999737;28;20245;-72
2022/05/25 13:04:13;;;;;;;1.55;0.30;;;21.30;64.80;;;;;;5018256;28;20033;-73
2022/05/25 13:06:42;;;;;;;2.58;0.30;;;21.50;64.50;;;;;;5004367;28;20025;-71
2022/05/25 13:09:41;;;;;;;4.57;0.50;;;22.10;63.00;;;;;;5001994;28;20121;-72
2022/05/25 13:12:39;;;;;;;3.05;0.40;;;22.60;61.10;;;;;;4998564;28;20046;-72
2022/05/25 13:15:27;;;;;;;2.50;0.15;;;23.10;74.90;;;;;;5012178;28;20120;-74
2022/05/25 13:17:54;;;;;;;1.85;0.30;;;23.30;72.50;;;;;;4998813;28;20357;-74
2022/05/25 13:20:28;;;;;;;0.75;0.32;;;22.90;69.70;;;;;;4994956;28;20030;-74
2022/05/25 13:23:03;;;;;;;1.20;0.20;;;22.50;70.30;;;;;;5007756;28;20394;-73
2022/05/25 13:25:53;;;;;;;2.30;0.40;;;22.10;72.90;;;;;;4989876;28;20116;-75
2022/05/25 13:28:40;;;;;;;4.10;0.20;;;22.00;77.10;;;;;;5002407;28;20579;-74
2022/05/25 13:31:44;;;;;;;0.73;0.20;;;22.40;65.60;;;;;;4995002;28;20025;-74
2022/05/25 13:34:12;;;;;;;;;;;22.90;64.70;;;;;;5010838;28;20038;-74
2022/05/25 13:37:00;;;;;;;0.77;0.20;;;22.90;58.40;;;;;;5003360;28;19913;-74